Flight Track Log - Related Links

Times and Time Zones

All times are in EDT time to prevent confusion due to time zone crossing. See the GJS3627 flight status page for this flight to view local times or setup timezone preferences in your user account.

Time Position Orientation Groundspeed Altitude Reporting Facility
EDT Latitude Longitude Course Direction KTS MPH feet Rate Location/Type
Sat 12:18:01 PM 41.9667 -87.8667 253° West 174 200 2,200  Level Chicago TRACON
Sat 12:19:01 PM 41.9167 -87.9167 217° Southwest 231 266 4,100 2,100 Climbing Chicago TRACON
Sat 12:20:01 PM 41.8833 -88.0000 242° Southwest 287 330 6,400 2,300 Climbing Chicago TRACON
Sat 12:21:00 PM 41.8392 -88.4539 255° West  Level FlightAware Approximate
Sat 12:21:01 PM 41.8706 -88.0906 259° West 297 342 8,700  Level Chicago Center
Sat 12:22:00 PM 41.8087 -88.5950 254° West  Level FlightAware Approximate
Sat 12:22:02 PM 41.8686 -88.2044 269° West 306 352 11,400  Level Chicago Center
Sat 12:23:00 PM 41.7775 -88.7358 253° West  Level FlightAware Approximate
Sat 12:23:04 PM 41.8453 -88.3467 258° West 336 387 13,900  Level Chicago Center
Sat 12:24:06 PM 41.8178 -88.4753 254° West 356 410 15,700 1,694 Climbing Chicago Center
Sat 12:25:08 PM 41.7867 -88.6122 253° West 384 442 17,400 1,548 Climbing Chicago Center
Sat 12:26:10 PM 41.7553 -88.7558 254° West 402 463 18,900 1,488 Climbing Chicago Center
Sat 12:27:13 PM 41.7228 -88.9006 253° West 409 471 20,500 1,344 Climbing Chicago Center
Sat 12:28:15 PM 41.6822 -89.0853 254° West 433 498 21,700 1,065 Climbing Chicago Center
Sat 12:29:17 PM 41.6461 -89.2483 254° West 455 524 22,700 1,065 Climbing Chicago Center
Sat 12:30:19 PM 41.6075 -89.4144 253° West 469 540 23,900 1,258 Climbing Chicago Center
Sat 12:31:21 PM 41.5672 -89.5931 253° West 469 540 25,300 1,161 Climbing Chicago Center
Sat 12:32:23 PM 41.5289 -89.7592 253° West 470 541 26,300 968 Climbing Chicago Center
Sat 12:33:25 PM 41.4906 -89.9267 253° West 473 544 27,300 919 Climbing Chicago Center
Sat 12:34:27 PM 41.4497 -90.0975 252° West 483 556 28,200 919 Climbing Chicago Center
Sat 12:35:29 PM 41.3606 -90.2817 237° Southwest 498 573 29,200 871 Climbing Chicago Center
Sat 12:36:31 PM 41.2822 -90.4342 236° Southwest 503 579 30,000 816 Climbing Chicago Center
Sat 12:37:34 PM 41.2017 -90.5914 236° Southwest 516 594 30,900 912 Climbing Chicago Center
Sat 12:38:36 PM 41.1228 -90.7444 236° Southwest 507 583 31,900 968 Climbing Chicago Center
Sat 12:39:38 PM 41.0439 -90.8953 235° Southwest 503 579 32,900 1,065 Climbing Chicago Center
Sat 12:40:40 PM 40.9503 -91.0733 235° Southwest 495 570 34,100 1,065 Climbing Chicago Center
Sat 12:41:42 PM 40.8728 -91.2214 235° Southwest 493 567 35,100 919 Climbing Chicago Center
Sat 12:42:44 PM 40.7903 -91.3769 235° Southwest 489 563 36,000 435 Climbing Chicago Center
Sat 12:43:46 PM 40.7147 -91.5308 237° Southwest 508 585 36,000  Level Chicago Center
Sat 12:44:48 PM 40.6447 -91.6906 240° Southwest 508 585 36,000  Level Chicago Center
Sat 12:45:34 PM 40.5881 -91.8156 239° Southwest 505 581 36,000  Level Kansas City Center
Sat 12:46:36 PM 40.5183 -91.9706 239° Southwest 499 574 36,000  Level Kansas City Center
Sat 12:47:38 PM 40.4481 -92.1250 239° Southwest 496 571 36,000  Level Kansas City Center
Sat 12:48:40 PM 40.3789 -92.2775 239° Southwest 492 566 36,000 -145 Level Kansas City Center
Sat 12:49:42 PM 40.3047 -92.4353 238° Southwest 483 556 35,700 -1,258 Descending Kansas City Center
Sat 12:50:44 PM 40.2275 -92.6078 240° Southwest 487 560 33,400 -2,129 Descending Kansas City Center
Sat 12:51:46 PM 40.1619 -92.7483 239° Southwest 480 552 31,300 -2,371 Descending Kansas City Center
Sat 12:52:48 PM 40.0881 -92.9067 239° Southwest 461 531 28,500 -2,565 Descending Kansas City Center
Sat 12:53:50 PM 40.0231 -93.0447 238° Southwest 451 519 26,000 -2,419 Descending Kansas City Center
Sat 12:54:52 PM 39.9592 -93.1756 238° Southwest 435 501 23,500 -2,419 Descending Kansas City Center
Sat 12:55:54 PM 39.8997 -93.3053 239° Southwest 424 488 21,000 -2,661 Descending Kansas City Center
Sat 12:56:56 PM 39.8308 -93.4556 239° Southwest 409 471 18,000 -2,613 Descending Kansas City Center
Sat 12:57:58 PM 39.7731 -93.5742 238° Southwest 399 459 15,600 -2,371 Descending Kansas City Center
Sat 12:59:00 PM 39.7172 -93.6919 238° Southwest 388 447 13,100 -1,742 Descending Kansas City Center
Sat 01:00:02 PM 39.6633 -93.8083 239° Southwest 367 422 12,000 -532 Descending Kansas City Center
Sat 01:01:04 PM 39.6028 -93.9314 237° Southwest 364 419 12,000  Level Kansas City Center
Sat 01:02:06 PM 39.5658 -94.0453 247° West 361 415 12,000 -387 Level Kansas City Center
Sat 01:03:08 PM 39.5458 -94.1631 258° West 349 402 11,200 -1,113 Descending Kansas City Center
Sat 01:04:10 PM 39.5233 -94.2892 257° West 324 373 9,700 -1,597 Descending Kansas City Center
Sat 01:05:12 PM 39.5028 -94.3878 255° West 300 345 7,900 -2,032 Descending Kansas City Center
Sat 01:06:14 PM 39.4619 -94.4922 243° Southwest 289 333 5,500 -2,323 Descending Kansas City Center

Login

Don't have an account? Register now (free) for customized features, flight alerts, and more!